Flight Track Log - Related Links

Times and Time Zones

All times are in EDT time to prevent confusion due to time zone crossing. See the JZA8019 flight status page for this flight to view local times or setup timezone preferences in your user account.

Time Position Orientation Groundspeed Altitude Reporting Facility
EDT Latitude Longitude Course Direction KTS MPH feet Rate Location/Type
Sun 05:42:56 PM 43.6667 -79.5667 36° Northeast 110 127 1,700  Level Toronto Center
Sun 05:43:56 PM 43.6667 -79.5000 90° East 150 173 2,500 850 Climbing Toronto Center
Sun 05:44:56 PM 43.6833 -79.4500 65° Northeast 170 196 3,400 950 Climbing Toronto Center
Sun 05:45:56 PM 43.6833 -79.3833 90° East 180 207 4,400 1,000 Climbing Toronto Center
Sun 05:46:56 PM 43.6500 -79.3833 180° South 130 150 5,400 800 Climbing Toronto Center
Sun 05:47:56 PM 43.6000 -79.3833 180° South 130 150 6,000 600 Climbing Toronto Center
Sun 05:48:56 PM 43.5667 -79.4000 200° South 160 184 6,600 500 Climbing Toronto Center
Sun 05:49:56 PM 43.5167 -79.4500 216° Southwest 160 184 7,000 250 Climbing Toronto Center
Sun 05:50:56 PM 43.4833 -79.4667 200° South 180 207 7,100 300 Climbing Toronto Center
Sun 05:51:56 PM 43.4500 -79.5333 235° Southwest 180 207 7,600 650 Climbing Toronto Center
Sun 05:52:56 PM 43.4167 -79.5833 227° Southwest 180 207 8,400 750 Climbing Toronto Center
Sun 05:53:56 PM 43.4000 -79.6333 245° Southwest 170 196 9,100 800 Climbing Toronto Center
Sun 05:54:56 PM 43.3667 -79.6833 227° Southwest 160 184 10,000 900 Climbing Toronto Center
Sun 05:55:56 PM 43.3500 -79.7167 235° Southwest 150 173 10,900 800 Climbing Toronto Center
Sun 05:56:56 PM 43.3167 -79.7667 228° Southwest 150 173 11,600 550 Climbing Toronto Center
Sun 05:57:56 PM 43.2833 -79.8167 228° Southwest 160 184 12,000 200 Climbing Toronto Center
Sun 05:58:56 PM 43.2667 -79.8833 251° West 180 207 12,000  Level Toronto Center
Sun 05:59:56 PM 43.2167 -79.9500 224° Southwest 190 219 12,000  Level Toronto Center
Sun 06:00:56 PM 43.2000 -80.0000 245° Southwest 200 230 12,000  Level Toronto Center
Sun 06:01:56 PM 43.1500 -80.0667 224° Southwest 200 230 12,000  Level Toronto Center
Sun 06:02:56 PM 43.1167 -80.1333 236° Southwest 200 230 12,000  Level Toronto Center
Sun 06:03:56 PM 43.0833 -80.1833 228° Southwest 200 230 12,000  Level Toronto Center
Sun 06:04:56 PM 43.0500 -80.2500 236° Southwest 200 230 12,000 100 Level Toronto Center
Sun 06:05:56 PM 43.0167 -80.3000 228° Southwest 200 230 12,200 300 Climbing Toronto Center
Sun 06:06:56 PM 43.0000 -80.3667 251° West 190 219 12,600 550 Climbing Toronto Center
Sun 06:07:56 PM 42.9667 -80.4000 216° Southwest 180 207 13,300 650 Climbing Toronto Center
Sun 06:08:56 PM 42.9333 -80.4500 228° Southwest 170 196 13,900 350 Climbing Toronto Center
Sun 06:09:56 PM 42.9000 -80.5167 236° Southwest 180 207 14,000 50 Climbing Toronto Center
Sun 06:10:56 PM 42.8667 -80.5667 228° Southwest 190 219 14,000  Level Toronto Center
Sun 06:11:56 PM 42.8333 -80.6333 236° Southwest 200 230 14,000  Level Toronto Center
Sun 06:12:56 PM 42.8000 -80.7000 236° Southwest 200 230 14,000  Level Toronto Center
Sun 06:13:56 PM 42.7667 -80.7500 228° Southwest 200 230 14,000  Level Toronto Center
Sun 06:14:56 PM 42.7167 -80.8167 224° Southwest 200 230 14,000  Level Toronto Center
Sun 06:15:56 PM 42.6833 -80.8833 236° Southwest 210 242 14,000 350 Level Toronto Center
Sun 06:16:56 PM 42.6833 -80.9500 270° West 200 230 14,700 750 Climbing Toronto Center
Sun 06:17:56 PM 42.6667 -81.0167 251° West 180 207 15,500 650 Climbing Toronto Center
Sun 06:18:56 PM 42.6667 -81.0833 270° West 160 184 16,000 250 Climbing Toronto Center
Sun 06:19:56 PM 42.6667 -81.1500 270° West 180 207 16,000  Level Toronto Center
Sun 06:20:56 PM 42.6500 -81.2167 251° West 190 219 16,000  Level Toronto Center
Sun 06:21:56 PM 42.6500 -81.2833 270° West 200 230 16,000  Level Toronto Center
Sun 06:22:56 PM 42.6333 -81.3833 257° West 210 242 16,000  Level Toronto Center
Sun 06:23:26 PM 42.6444 -81.4206 292° West 208 239 16,000  Level Cleveland Center
Sun 06:24:29 PM 42.6347 -81.4992 260° West 210 242 16,000 -144 Level Cleveland Center
Sun 06:25:31 PM 42.6256 -81.5781 261° West 211 243 15,700 -629 Descending Cleveland Center
Sun 06:26:33 PM 42.6161 -81.6661 262° West 226 260 14,700 -1,065 Descending Cleveland Center
Sun 06:27:35 PM 42.6014 -81.7756 260° West 246 283 13,500 -1,113 Descending Cleveland Center
Sun 06:28:37 PM 42.5903 -81.8750 261° West 252 290 12,400 -1,016 Descending Cleveland Center
Sun 06:29:39 PM 42.5792 -81.9689 261° West 254 292 11,400 -677 Descending Cleveland Center
Sun 06:30:41 PM 42.5675 -82.0608 260° West 251 289 11,000 -194 Descending Cleveland Center
Sun 06:31:43 PM 42.5572 -82.1461 261° West 238 274 11,000  Level Cleveland Center
Sun 06:31:59 PM 42.5542 -82.1761 262° West 226 260 11,000  Level Cleveland Center
Sun 06:32:45 PM 42.5472 -82.2250 259° West 219 252 11,000  Level Cleveland Center
Sun 06:32:48 PM 42.5456 -82.2428 263° West 212 244 11,000  Level Cleveland Center
Sun 06:33:47 PM 42.5372 -82.3039 260° West 214 246 11,000  Level Cleveland Center
Sun 06:33:50 PM 42.5361 -82.3208 265° West 212 244 11,000  Level Cleveland Center
Sun 06:34:49 PM 42.5253 -82.3981 259° West 212 244 11,000  Level Cleveland Center
Sun 06:34:57 PM 42.5256 -82.4131 271° West 214 246 11,000 97 Level Cleveland Center
Sun 06:35:51 PM 42.5147 -82.4786 257° West 215 247 11,100  Climbing Cleveland Center
Sun 06:35:52 PM 42.5164 -82.4853 289° West 219 252 11,000 -97 Descending Cleveland Center
Sun 06:36:53 PM 42.5031 -82.5631 257° West 224 258 11,000 -443 Level Cleveland Center
Sun 06:37:54 PM 42.4736 -82.6439 244° Southwest 226 260 10,100 -774 Descending Cleveland Center
Sun 06:37:55 PM 42.4756 -82.6347 74° East 217 250 10,200 -984 Climbing Cleveland Center
Sun 06:38:55 PM 42.4472 -82.7197 246° West 221 254 9,100 -968 Descending Cleveland Center
Sun 06:38:57 PM 42.4475 -82.7103 88° East 221 254 9,200 -97 Climbing Cleveland Center
Sun 06:39:57 PM 42.4211 -82.7925 247° West 206 237 9,000 -190 Descending Cleveland Center
Sun 06:40:00 PM 42.4222 -82.7808 83° East 215 247 9,000 -923 Level Cleveland Center
Sun 06:41:02 PM 42.3989 -82.8700 251° West 221 254 8,000 -1,048 Descending Cleveland Center
Sun 06:41:03 PM 42.4022 -82.8778 300° West 232 267 7,900 -968 Descending Cleveland Center
Sun 06:42:04 PM 42.4292 -82.9575 295° West 255 293 7,000 -439 Descending Cleveland Center
Sun 06:43:06 PM 42.4642 -83.0331 302° West 199 229 7,000 -197 Level Cleveland Center
Sun 06:44:06 PM 42.4994 -83.0944 308° West 197 227 6,600 -290 Descending Cleveland Center
Sun 06:44:08 PM 42.4972 -83.0817 103° East 207 238 6,700 -655 Climbing Cleveland Center
Sun 06:45:01 PM 42.4769 -83.1422 246° West 158 182 6,000 -677 Descending Cleveland Center
Sun 06:45:10 PM 42.4775 -83.1386 78° East 176 203 6,000 -492 Level Cleveland Center
Sun 06:46:02 PM 42.4389 -83.1739 214° Southwest 162 186 5,500 -677 Descending Cleveland Center
Sun 06:46:12 PM 42.4314 -83.1769 197° South 164 189 5,300 -885 Descending Cleveland Center
Sun 06:47:03 PM 42.3969 -83.2019 208° Southwest 166 191 4,600 -871 Descending Cleveland Center
Sun 06:47:14 PM 42.3906 -83.2058 204° Southwest 163 188 4,400 -885 Descending Cleveland Center
Sun 06:48:04 PM 42.3569 -83.2331 211° Southwest 164 189 3,700 -774 Descending Cleveland Center
Sun 06:48:16 PM 42.3506 -83.2350 193° South 164 189 3,600 -873 Descending Cleveland Center
Sun 06:48:59 PM 42.3214 -83.2592 211° Southwest 154 177 2,900 -871 Descending Cleveland Center
Sun 06:49:18 PM 42.3122 -83.2633 199° South 159 183 2,700 -787 Descending Cleveland Center
Sun 06:50:00 PM 42.2858 -83.2853 212° Southwest 141 162 2,100 -677 Descending Cleveland Center
Sun 06:50:20 PM 42.2772 -83.2906 204° Southwest 149 171 2,000 -689 Descending Cleveland Center
Sun 06:51:01 PM 42.2561 -83.3150 221° Southwest 110 127 1,400 -750 Descending Cleveland Center
Sun 06:51:24 PM 42.2511 -83.3181 204° Southwest 132 152 1,200 -289 Descending Cleveland Center
Sun 06:52:24 PM 42.2211 -83.3425 211° Southwest 122 140 1,000 -200 Descending Cleveland Center

Login

Don't have an account? Register now (free) for customized features, flight alerts, and more!